createdAt,value
2018-07-08T00:02:01.524Z,4.60
2018-07-08T00:04:30.639Z,3.83
2018-07-08T00:06:59.957Z,3.80
2018-07-08T00:09:28.957Z,3.80
2018-07-08T00:11:58.102Z,4.60
2018-07-08T00:14:27.331Z,3.50
2018-07-08T00:16:56.732Z,3.57
2018-07-08T00:19:25.736Z,3.83
2018-07-08T00:21:54.630Z,5.10
2018-07-08T00:24:23.396Z,3.90
2018-07-08T00:26:53.014Z,4.07
2018-07-08T00:29:21.785Z,3.73
2018-07-08T00:31:51.209Z,3.70
2018-07-08T00:34:20.355Z,3.90
2018-07-08T00:36:49.484Z,6.00
2018-07-08T00:39:19.148Z,4.90
2018-07-08T00:41:48.144Z,3.60
2018-07-08T00:44:17.028Z,5.07
2018-07-08T00:46:45.902Z,3.83
2018-07-08T00:49:15.064Z,4.07
2018-07-08T00:51:44.542Z,4.30
2018-07-08T00:54:13.448Z,4.07
2018-07-08T00:56:42.444Z,3.73
2018-07-08T00:59:11.572Z,3.03
2018-07-08T01:01:40.667Z,3.70
2018-07-08T01:04:10.032Z,4.50
2018-07-08T01:06:39.488Z,3.40
2018-07-08T01:09:08.749Z,3.43
2018-07-08T01:11:37.792Z,3.63
2018-07-08T01:14:06.912Z,4.03
2018-07-08T01:16:36.504Z,3.37
2018-07-08T01:19:06.433Z,4.23
2018-07-08T01:21:35.329Z,3.80
2018-07-08T01:24:04.333Z,3.83
2018-07-08T01:26:33.377Z,3.77
2018-07-08T01:29:02.615Z,4.27
2018-07-08T01:31:31.552Z,3.70
2018-07-08T01:34:00.665Z,4.13
2018-07-08T01:36:29.941Z,3.80
2018-07-08T01:38:59.557Z,3.30
2018-07-08T01:41:28.797Z,3.50
2018-07-08T01:43:57.649Z,4.83
2018-07-08T01:46:27.134Z,4.03
2018-07-08T01:48:56.254Z,4.20
2018-07-08T01:51:25.473Z,4.10
2018-07-08T01:53:54.952Z,3.90
2018-07-08T01:56:23.971Z,4.50
2018-07-08T01:58:53.451Z,3.83
2018-07-08T02:01:22.602Z,5.37
2018-07-08T02:03:52.971Z,4.13
2018-07-08T02:06:22.688Z,4.43
2018-07-08T02:08:51.462Z,3.90
2018-07-08T02:11:20.785Z,4.17
2018-07-08T02:13:49.654Z,3.83
2018-07-08T02:16:18.563Z,4.27
2018-07-08T02:18:48.008Z,3.57
2018-07-08T02:21:17.237Z,4.10
2018-07-08T02:23:46.171Z,4.10
2018-07-08T02:26:14.901Z,4.20
2018-07-08T02:28:45.343Z,5.30
2018-07-08T02:31:15.137Z,3.93
2018-07-08T02:33:45.613Z,4.70
2018-07-08T02:36:15.486Z,4.33
2018-07-08T02:38:45.290Z,4.00
2018-07-08T02:41:14.299Z,5.40
2018-07-08T02:43:43.704Z,4.93
2018-07-08T02:46:12.579Z,4.40
2018-07-08T02:48:41.839Z,4.03
2018-07-08T02:51:10.896Z,4.57
2018-07-08T02:53:39.643Z,3.80
2018-07-08T02:56:08.966Z,3.23
2018-07-08T02:58:38.422Z,4.00
2018-07-08T03:01:07.697Z,4.50
2018-07-08T03:03:36.799Z,4.83
2018-07-08T03:06:05.943Z,4.67
2018-07-08T03:08:34.677Z,4.10
2018-07-08T03:11:03.440Z,4.53
2018-07-08T03:13:32.665Z,4.47
2018-07-08T03:16:01.782Z,4.10
2018-07-08T03:18:30.559Z,4.27
2018-07-08T03:20:59.444Z,4.77
2018-07-08T03:23:28.733Z,4.67
2018-07-08T03:25:57.523Z,4.50
2018-07-08T03:28:27.046Z,4.23
2018-07-08T03:30:55.949Z,4.30
2018-07-08T03:33:25.109Z,4.10
2018-07-08T03:35:54.124Z,4.70
2018-07-08T03:38:23.873Z,6.03
2018-07-08T03:40:53.295Z,4.30
2018-07-08T03:43:22.344Z,4.70
2018-07-08T03:45:51.664Z,4.30
2018-07-08T03:48:20.793Z,3.87
2018-07-08T03:50:50.174Z,4.80
2018-07-08T03:53:19.472Z,3.50
2018-07-08T03:55:48.498Z,3.20
2018-07-08T03:58:17.898Z,2.70
2018-07-08T04:00:46.912Z,3.27
2018-07-08T04:03:15.756Z,3.30
2018-07-08T04:05:44.812Z,4.40
2018-07-08T04:08:13.967Z,3.93
2018-07-08T04:10:42.820Z,3.60
2018-07-08T04:13:11.885Z,4.17
2018-07-08T04:15:40.987Z,3.70
2018-07-08T04:18:10.641Z,3.90
2018-07-08T04:20:40.609Z,3.60
2018-07-08T04:23:09.550Z,5.30
2018-07-08T04:25:38.695Z,3.83
2018-07-08T04:28:08.112Z,3.40
2018-07-08T04:30:37.198Z,3.03
2018-07-08T04:33:06.128Z,4.07
2018-07-08T04:35:35.395Z,4.10
2018-07-08T04:38:05.696Z,5.17
2018-07-08T04:40:34.984Z,5.57
2018-07-08T04:43:04.220Z,5.53
2018-07-08T04:45:33.666Z,6.30
2018-07-08T04:48:02.933Z,6.63
2018-07-08T04:50:32.217Z,5.80
2018-07-08T04:53:01.779Z,6.60
2018-07-08T04:55:30.535Z,6.50
2018-07-08T04:57:59.689Z,6.80
2018-07-08T05:00:29.057Z,6.30
2018-07-08T05:02:57.971Z,6.87
2018-07-08T05:05:27.131Z,6.10
2018-07-08T05:07:56.185Z,6.80
2018-07-08T05:10:25.678Z,6.17
2018-07-08T05:12:54.680Z,6.50
2018-07-08T05:15:23.927Z,5.97
2018-07-08T05:17:52.750Z,6.93
2018-07-08T05:20:21.789Z,6.77
2018-07-08T05:22:50.915Z,6.93
2018-07-08T05:25:20.294Z,7.23
2018-07-08T05:27:49.153Z,7.30
2018-07-08T05:30:18.843Z,6.80
2018-07-08T05:32:48.079Z,7.17
2018-07-08T05:35:17.411Z,6.53
2018-07-08T05:37:46.885Z,7.00
2018-07-08T05:40:16.564Z,7.40
2018-07-08T05:42:45.485Z,7.47
2018-07-08T05:45:15.059Z,6.37
2018-07-08T05:47:43.916Z,6.43
2018-07-08T05:50:13.128Z,6.43
2018-07-08T05:52:42.188Z,6.33
2018-07-08T05:55:11.157Z,6.93
2018-07-08T05:57:40.340Z,6.03
2018-07-08T06:00:09.628Z,6.30
2018-07-08T06:02:38.717Z,5.93
2018-07-08T06:05:07.962Z,6.40
2018-07-08T06:07:37.333Z,5.37
2018-07-08T06:10:06.411Z,6.30
2018-07-08T06:12:35.393Z,6.23
2018-07-08T06:15:04.222Z,5.70
2018-07-08T06:17:33.668Z,5.50
2018-07-08T06:20:02.531Z,5.43
2018-07-08T06:22:31.560Z,4.57
2018-07-08T06:25:01.143Z,3.77
2018-07-08T06:27:30.368Z,5.00
2018-07-08T06:29:59.592Z,4.57
2018-07-08T06:32:28.618Z,3.90
2018-07-08T06:34:58.255Z,4.40
2018-07-08T06:37:27.355Z,4.20
2018-07-08T06:39:56.483Z,5.07
2018-07-08T06:42:25.704Z,3.90
2018-07-08T06:44:54.758Z,3.40
2018-07-08T06:47:23.580Z,3.53
2018-07-08T06:49:52.386Z,3.30
2018-07-08T06:52:21.211Z,3.40
2018-07-08T06:54:50.016Z,3.40
2018-07-08T06:57:19.087Z,3.53
2018-07-08T06:59:47.935Z,3.50
2018-07-08T07:02:17.178Z,3.10
2018-07-08T07:04:46.199Z,3.17
2018-07-08T07:07:15.132Z,2.67
2018-07-08T07:09:44.267Z,2.20
2018-07-08T07:12:13.312Z,2.40
2018-07-08T07:14:42.768Z,2.07
2018-07-08T07:17:11.995Z,1.90
2018-07-08T07:19:40.932Z,2.30
2018-07-08T07:22:10.054Z,2.00
2018-07-08T07:24:39.189Z,2.23
2018-07-08T07:27:08.307Z,1.70
2018-07-08T07:29:37.099Z,1.70
2018-07-08T07:35:05.318Z,2.40
2018-07-08T07:37:34.889Z,1.70
2018-07-08T07:40:03.665Z,1.80
2018-07-08T07:42:34.258Z,2.33
2018-07-08T07:45:03.434Z,2.00
2018-07-08T07:47:32.397Z,1.90
2018-07-08T07:50:01.741Z,1.37
2018-07-08T07:52:30.466Z,1.37
2018-07-08T07:54:59.919Z,1.70
2018-07-08T07:57:28.944Z,1.60
2018-07-08T07:59:57.680Z,1.90
2018-07-08T08:02:26.973Z,2.10
2018-07-08T08:04:55.711Z,1.77
2018-07-08T08:07:24.657Z,1.83
2018-07-08T08:09:53.708Z,1.67
2018-07-08T08:12:22.476Z,1.73
2018-07-08T08:14:51.584Z,2.20
2018-07-08T08:17:20.964Z,1.60
2018-07-08T08:19:49.700Z,1.90
2018-07-08T08:22:19.228Z,2.20
2018-07-08T08:24:48.129Z,1.53
2018-07-08T08:27:16.936Z,2.57
2018-07-08T08:29:45.705Z,1.80
2018-07-08T08:32:14.490Z,1.97
2018-07-08T08:35:22.283Z,1.67
2018-07-08T08:37:53.335Z,2.30
2018-07-08T08:40:23.655Z,2.43
2018-07-08T08:42:52.852Z,1.63
2018-07-08T08:45:23.223Z,2.03
2018-07-08T08:47:52.348Z,1.63
2018-07-08T08:50:21.140Z,1.77
2018-07-08T08:52:55.060Z,1.60
2018-07-08T08:55:24.380Z,1.80
2018-07-08T08:57:53.464Z,1.70
2018-07-08T09:00:22.743Z,1.70
2018-07-08T09:02:52.012Z,2.67
2018-07-08T09:05:20.863Z,2.47
2018-07-08T09:07:50.058Z,2.23
2018-07-08T09:10:20.392Z,1.50
2018-07-08T09:12:51.038Z,1.50
2018-07-08T09:15:21.474Z,1.70
2018-07-08T09:17:52.367Z,1.63
2018-07-08T09:20:22.501Z,1.60
2018-07-08T09:22:52.644Z,1.83
2018-07-08T09:25:21.474Z,2.10
2018-07-08T09:27:51.333Z,2.17
2018-07-08T09:30:21.189Z,1.70
2018-07-08T09:32:49.988Z,1.53
2018-07-08T09:35:18.808Z,1.80
2018-07-08T09:37:47.872Z,2.00
2018-07-08T09:40:16.992Z,1.57
2018-07-08T09:42:46.093Z,1.80
2018-07-08T09:45:15.289Z,1.50
2018-07-08T09:47:44.212Z,1.60
2018-07-08T09:50:15.897Z,1.43
2018-07-08T09:52:44.731Z,2.10
2018-07-08T09:55:13.947Z,2.17
2018-07-08T09:57:42.788Z,2.13
2018-07-08T10:00:11.585Z,1.23
2018-07-08T10:02:40.935Z,1.40
2018-07-08T10:05:09.821Z,2.00
2018-07-08T10:07:38.622Z,1.57
2018-07-08T10:10:07.711Z,1.93
2018-07-08T10:12:36.725Z,1.47
2018-07-08T10:15:06.108Z,1.50
2018-07-08T10:17:35.500Z,1.70
2018-07-08T10:20:04.676Z,1.20
2018-07-08T10:22:33.877Z,1.13
2018-07-08T10:25:03.048Z,1.67
2018-07-08T10:27:59.007Z,1.43
2018-07-08T10:30:28.110Z,1.37
2018-07-08T10:32:57.136Z,1.57
2018-07-08T10:35:36.911Z,1.60
2018-07-08T10:38:06.620Z,1.20
2018-07-08T10:40:35.854Z,1.37
2018-07-08T10:43:04.696Z,1.57
2018-07-08T10:45:34.125Z,1.57
2018-07-08T10:48:03.234Z,1.33
2018-07-08T10:50:32.444Z,1.40
2018-07-08T10:53:01.464Z,1.40
2018-07-08T10:55:30.653Z,1.30
2018-07-08T10:57:59.857Z,1.40
2018-07-08T11:00:28.988Z,2.90
2018-07-08T11:02:57.744Z,1.87
2018-07-08T11:05:27.443Z,1.50
2018-07-08T11:07:57.310Z,1.80
2018-07-08T11:10:27.188Z,1.50
2018-07-08T11:12:56.031Z,1.37
2018-07-08T11:15:24.779Z,1.47
2018-07-08T11:17:53.544Z,1.53
2018-07-08T11:20:22.859Z,1.73
2018-07-08T11:22:51.651Z,2.00
2018-07-08T11:25:21.166Z,1.77
2018-07-08T11:27:51.233Z,1.37
2018-07-08T11:30:20.280Z,1.60
2018-07-08T11:32:49.426Z,1.30
2018-07-08T11:35:18.925Z,1.00
2018-07-08T11:37:47.687Z,1.63
2018-07-08T11:40:16.754Z,1.53
2018-07-08T11:42:46.619Z,1.43
2018-07-08T11:45:17.492Z,1.47
2018-07-08T11:47:46.309Z,1.63
2018-07-08T11:50:15.400Z,1.33
2018-07-08T11:52:50.912Z,1.50
2018-07-08T11:55:19.719Z,2.30
2018-07-08T11:57:48.814Z,1.23
2018-07-08T12:00:18.175Z,1.30
2018-07-08T12:02:47.241Z,1.80
2018-07-08T12:05:16.484Z,1.67
2018-07-08T12:07:46.154Z,1.80
2018-07-08T12:10:15.584Z,1.97
2018-07-08T12:12:44.992Z,1.60
2018-07-08T12:15:15.117Z,1.40
2018-07-08T12:17:44.912Z,2.13
2018-07-08T12:20:14.088Z,1.60
2018-07-08T12:22:42.869Z,1.17
2018-07-08T12:25:12.635Z,1.70
2018-07-08T12:27:42.165Z,1.77
2018-07-08T12:30:10.814Z,1.33
2018-07-08T12:32:39.869Z,1.60
2018-07-08T12:35:09.144Z,1.53
2018-07-08T12:37:37.920Z,1.33
2018-07-08T12:40:06.785Z,1.27
2018-07-08T12:42:36.561Z,1.10
2018-07-08T12:45:05.351Z,1.37
2018-07-08T12:47:34.079Z,1.10
2018-07-08T12:50:02.860Z,1.50
2018-07-08T12:52:32.202Z,1.60
2018-07-08T12:55:01.980Z,2.57
2018-07-08T12:57:31.047Z,2.60
2018-07-08T13:00:00.486Z,1.57
2018-07-08T13:02:29.624Z,2.00
2018-07-08T13:04:59.660Z,1.53
2018-07-08T13:07:29.644Z,1.10
2018-07-08T13:09:58.812Z,1.60
2018-07-08T13:12:29.073Z,1.40
2018-07-08T13:15:04.529Z,1.40
2018-07-08T13:17:33.539Z,1.67
2018-07-08T13:20:02.801Z,2.13
2018-07-08T13:22:32.609Z,1.60
2018-07-08T13:25:01.845Z,1.00
2018-07-08T13:27:30.840Z,1.77
2018-07-08T13:30:00.561Z,1.67
2018-07-08T13:32:29.528Z,1.30
2018-07-08T13:34:59.204Z,1.50
2018-07-08T13:37:28.219Z,1.63
2018-07-08T13:39:57.976Z,1.43
2018-07-08T13:42:26.909Z,1.43
2018-07-08T13:44:55.701Z,1.37
2018-07-08T13:47:25.023Z,1.07
2018-07-08T13:49:53.717Z,1.37
2018-07-08T13:52:22.833Z,1.47
2018-07-08T13:54:51.652Z,1.67
2018-07-08T13:57:20.670Z,1.50
2018-07-08T13:59:50.136Z,1.50
2018-07-08T14:02:18.950Z,1.30
2018-07-08T14:04:48.776Z,1.30
2018-07-08T14:07:17.823Z,1.27
2018-07-08T14:09:46.624Z,1.30
2018-07-08T14:12:16.037Z,1.23
2018-07-08T14:14:45.131Z,2.30
2018-07-08T14:17:14.504Z,1.60
2018-07-08T14:22:22.792Z,1.13
2018-07-08T14:24:51.648Z,1.70
2018-07-08T14:27:20.425Z,1.77
2018-07-08T14:29:49.210Z,1.50
2018-07-08T14:32:18.038Z,2.37
2018-07-08T14:34:46.818Z,1.87
2018-07-08T14:37:15.639Z,1.13
2018-07-08T14:39:44.904Z,1.60
2018-07-08T14:42:14.157Z,1.93
2018-07-08T14:44:43.051Z,2.27
2018-07-08T14:47:11.803Z,2.03
2018-07-08T14:49:40.557Z,1.50
2018-07-08T14:52:09.921Z,1.43
2018-07-08T14:54:38.648Z,1.40
2018-07-08T14:57:07.680Z,1.57
2018-07-08T14:59:37.070Z,1.67
2018-07-08T15:02:06.961Z,1.70
2018-07-08T15:04:37.136Z,1.57
2018-07-08T15:07:07.555Z,1.80
2018-07-08T15:09:37.720Z,1.40
2018-07-08T15:12:07.824Z,1.53
2018-07-08T15:14:37.698Z,1.37
2018-07-08T15:17:07.448Z,2.00
2018-07-08T15:19:36.943Z,1.47
2018-07-08T15:22:05.711Z,1.40
2018-07-08T15:24:34.747Z,1.60
2018-07-08T15:27:04.443Z,1.50
2018-07-08T15:29:33.517Z,1.77
2018-07-08T15:32:02.348Z,1.63
2018-07-08T15:34:31.715Z,2.53
2018-07-08T15:37:00.842Z,1.60
2018-07-08T15:39:30.921Z,2.40
2018-07-08T15:42:00.096Z,1.80
2018-07-08T15:44:29.278Z,2.10
2018-07-08T15:46:58.271Z,1.97
2018-07-08T15:49:27.293Z,2.97
2018-07-08T15:51:56.691Z,2.00
2018-07-08T15:54:25.726Z,1.90
2018-07-08T15:56:55.198Z,2.00
2018-07-08T15:59:24.021Z,1.40
2018-07-08T16:01:53.210Z,2.03
2018-07-08T16:04:22.057Z,2.93
2018-07-08T16:06:50.947Z,1.80
2018-07-08T16:09:20.055Z,1.53
2018-07-08T16:11:49.315Z,1.30
2018-07-08T16:14:18.649Z,1.57
2018-07-08T16:16:48.357Z,1.70
2018-07-08T16:19:17.278Z,1.80
2018-07-08T16:21:46.059Z,2.10
2018-07-08T16:24:14.879Z,2.10
2018-07-08T16:26:44.229Z,1.70
2018-07-08T16:29:13.287Z,1.93
2018-07-08T16:31:42.358Z,1.80
2018-07-08T16:34:11.808Z,2.03
2018-07-08T16:36:41.290Z,2.17
2018-07-08T16:39:10.072Z,1.57
2018-07-08T16:41:38.858Z,1.47
2018-07-08T16:44:07.961Z,1.63
2018-07-08T16:46:37.103Z,2.10
2018-07-08T16:49:05.883Z,1.47
2018-07-08T16:51:34.644Z,2.73
2018-07-08T16:54:03.458Z,1.63
2018-07-08T16:56:33.143Z,2.10
2018-07-08T16:59:02.544Z,2.07
2018-07-08T17:01:31.674Z,2.57
2018-07-08T17:04:01.406Z,1.67
2018-07-08T17:06:30.857Z,1.77
2018-07-08T17:08:59.610Z,1.77
2018-07-08T17:11:30.292Z,1.30
2018-07-08T17:13:59.231Z,1.83
2018-07-08T17:16:28.315Z,1.20
2018-07-08T17:18:57.488Z,1.60
2018-07-08T17:21:26.535Z,1.60
2018-07-08T17:23:56.270Z,1.70
2018-07-08T17:26:25.369Z,1.70
2018-07-08T17:28:54.557Z,1.53
2018-07-08T17:31:23.971Z,2.27
2018-07-08T17:33:52.725Z,1.57
2018-07-08T17:36:21.616Z,1.90
2018-07-08T17:38:50.422Z,1.37
2018-07-08T17:41:19.244Z,1.83
2018-07-08T17:43:48.420Z,1.80
2018-07-08T17:46:17.172Z,1.77
2018-07-08T17:48:46.180Z,2.30
2018-07-08T17:51:15.187Z,2.20
2018-07-08T17:53:44.188Z,2.70
2018-07-08T17:56:12.955Z,1.77
2018-07-08T17:58:42.807Z,2.20
2018-07-08T18:01:11.791Z,2.40
2018-07-08T18:03:40.815Z,1.90
2018-07-08T18:06:09.950Z,2.20
2018-07-08T18:08:39.052Z,2.07
2018-07-08T18:11:08.587Z,2.37
2018-07-08T18:13:37.324Z,1.93
2018-07-08T18:16:06.871Z,1.87
2018-07-08T18:18:36.174Z,3.30
2018-07-08T18:21:05.274Z,2.10
2018-07-08T18:23:34.094Z,2.23
2018-07-08T18:26:03.208Z,2.13
2018-07-08T18:28:31.971Z,2.13
2018-07-08T18:31:00.768Z,2.30
2018-07-08T18:33:29.860Z,2.17
2018-07-08T18:35:59.066Z,2.03
2018-07-08T18:38:28.091Z,2.00
2018-07-08T18:40:57.941Z,1.80
2018-07-08T18:43:27.014Z,2.63
2018-07-08T18:45:56.054Z,2.27
2018-07-08T18:48:25.776Z,1.90
2018-07-08T18:50:55.053Z,2.73
2018-07-08T18:53:24.390Z,1.60
2018-07-08T18:55:53.425Z,1.70
2018-07-08T18:58:22.494Z,2.23
2018-07-08T19:00:51.626Z,2.33
2018-07-08T19:03:20.404Z,2.53
2018-07-08T19:05:49.811Z,2.47
2018-07-08T19:08:19.210Z,2.73
2018-07-08T19:10:48.332Z,2.37
2018-07-08T19:13:18.098Z,2.30
2018-07-08T19:15:47.238Z,2.97
2018-07-08T19:18:16.010Z,1.87
2018-07-08T19:20:45.107Z,1.87
2018-07-08T19:23:14.509Z,1.50
2018-07-08T19:25:43.354Z,2.43
2018-07-08T19:28:12.099Z,2.13
2018-07-08T19:30:43.211Z,2.13
2018-07-08T19:33:12.595Z,2.73
2018-07-08T19:35:41.564Z,2.27
2018-07-08T19:38:10.940Z,2.57
2018-07-08T19:40:39.895Z,2.10
2018-07-08T19:43:08.696Z,2.60
2018-07-08T19:45:37.769Z,2.93
2018-07-08T19:48:07.093Z,2.97
2018-07-08T19:50:35.998Z,2.90
2018-07-08T19:53:05.226Z,2.97
2018-07-08T19:55:33.961Z,2.87
2018-07-08T19:58:03.073Z,2.50
2018-07-08T20:00:32.267Z,2.60
2018-07-08T20:03:01.410Z,2.50
2018-07-08T20:05:30.872Z,2.20
2018-07-08T20:07:59.834Z,2.53
2018-07-08T20:10:29.268Z,2.47
2018-07-08T20:12:58.357Z,2.33
2018-07-08T20:15:27.359Z,2.87
2018-07-08T20:17:56.156Z,2.43
2018-07-08T20:20:25.172Z,2.43
2018-07-08T20:22:54.233Z,2.90
2018-07-08T20:25:23.024Z,3.10
2018-07-08T20:27:52.286Z,2.50
2018-07-08T20:30:21.047Z,3.87
2018-07-08T20:32:50.135Z,2.40
2018-07-08T20:35:19.142Z,2.40
2018-07-08T20:37:48.055Z,3.17
2018-07-08T20:40:17.379Z,3.53
2018-07-08T20:42:46.732Z,3.10
2018-07-08T20:45:15.524Z,3.70
2018-07-08T20:47:44.639Z,3.20
2018-07-08T20:50:13.880Z,3.07
2018-07-08T20:52:50.554Z,2.80
2018-07-08T20:55:20.442Z,3.40
2018-07-08T20:57:50.195Z,3.70
2018-07-08T21:00:19.569Z,3.20
2018-07-08T21:02:48.543Z,3.20
2018-07-08T21:05:22.517Z,3.70
2018-07-08T21:07:52.314Z,2.83
2018-07-08T21:10:21.155Z,4.50
2018-07-08T21:12:50.847Z,3.13
2018-07-08T21:15:19.987Z,4.00
2018-07-08T21:17:48.808Z,4.40
2018-07-08T21:20:17.941Z,4.50
2018-07-08T21:22:47.318Z,3.63
2018-07-08T21:25:16.669Z,4.10
2018-07-08T21:27:46.420Z,4.40
2018-07-08T21:30:15.410Z,4.87
2018-07-08T21:32:44.582Z,4.47
2018-07-08T21:35:13.413Z,3.90
2018-07-08T21:37:43.020Z,4.57
2018-07-08T21:40:11.972Z,5.10
2018-07-08T21:42:41.333Z,4.70
2018-07-08T21:45:10.184Z,4.23
2018-07-08T21:47:39.732Z,4.20
2018-07-08T21:50:09.037Z,4.60
2018-07-08T21:52:38.093Z,5.20
2018-07-08T21:55:07.580Z,5.20
2018-07-08T21:57:36.986Z,4.80
2018-07-08T22:00:07.176Z,5.20
2018-07-08T22:02:36.075Z,5.50
2018-07-08T22:05:04.891Z,5.30
2018-07-08T22:07:39.279Z,5.47
2018-07-08T22:10:08.875Z,5.17
2018-07-08T22:12:38.114Z,5.90
2018-07-08T22:15:07.271Z,7.30
2018-07-08T22:17:36.750Z,5.80
2018-07-08T22:20:06.601Z,7.03
2018-07-08T22:22:35.558Z,6.57
2018-07-08T22:25:04.546Z,6.97
2018-07-08T22:27:33.614Z,5.63
2018-07-08T22:30:02.549Z,5.70
2018-07-08T22:32:31.996Z,6.40
2018-07-08T22:35:00.839Z,4.80
2018-07-08T22:37:30.173Z,5.70
2018-07-08T22:39:59.378Z,5.10
2018-07-08T22:42:28.374Z,5.13
2018-07-08T22:44:57.219Z,4.77
2018-07-08T22:47:26.126Z,4.67
2018-07-08T22:49:55.142Z,4.90
2018-07-08T22:52:24.253Z,5.60
2018-07-08T22:54:53.594Z,5.47
2018-07-08T22:57:22.719Z,5.93
2018-07-08T23:01:03.688Z,4.37
2018-07-08T23:03:45.590Z,5.33
2018-07-08T23:06:14.467Z,5.90
2018-07-08T23:08:43.790Z,5.73
2018-07-08T23:11:13.189Z,6.67
2018-07-08T23:13:42.531Z,7.10
2018-07-08T23:16:12.205Z,6.10
2018-07-08T23:18:41.135Z,6.30
2018-07-08T23:21:09.953Z,6.43
2018-07-08T23:23:39.054Z,5.70
2018-07-08T23:26:08.303Z,5.47
2018-07-08T23:28:37.715Z,6.00
2018-07-08T23:31:07.690Z,6.30
2018-07-08T23:33:36.575Z,6.07
2018-07-08T23:36:06.233Z,6.57
2018-07-08T23:38:35.867Z,6.70
2018-07-08T23:41:05.669Z,6.40
2018-07-08T23:43:34.617Z,7.20
2018-07-08T23:46:03.895Z,7.33
2018-07-08T23:48:33.197Z,6.77
2018-07-08T23:51:02.448Z,7.13
2018-07-08T23:53:31.646Z,8.03
2018-07-08T23:56:00.737Z,6.40
2018-07-08T23:58:29.533Z,7.43
